Time;durP1;ratioP1;P1;durP2;ratioP2;P2;SDS_P1;SDS_P2;PMS_P1;PMS_P2;Temp;Humidity;BMP_temperature;BMP_pressure;BME280_temperature;BME280_humidity;BME280_pressure;Samples;Min_cycle;Max_cycle;Signal;HPM_P1;HPM_P2
2024/03/17 00:01:03;;;;;;;;;;;6.50;99.90;;;;;;5048771;28;20289;-77
2024/03/17 00:03:29;;;;;;;;;;;6.50;99.90;;;;;;5048679;28;20402;-77
2024/03/17 00:05:58;;;;;;;;;;;6.50;99.90;;;;;;5094118;28;19920;-77
2024/03/17 00:08:24;;;;;;;;;;;6.50;99.90;;;;;;5067896;28;19948;-77
2024/03/17 00:10:54;;;;;;;;;;;6.40;99.90;;;;;;5040978;28;19974;-77
2024/03/17 00:13:20;;;;;;;;;;;6.40;99.90;;;;;;5074420;28;19912;-76
2024/03/17 00:15:45;;;;;;;;;;;6.40;99.90;;;;;;5087948;28;20245;-77
2024/03/17 00:18:11;;;;;;;;;;;6.40;99.90;;;;;;5071577;28;20007;-77
2024/03/17 00:20:38;;;;;;;;;;;6.30;99.90;;;;;;5073855;28;19916;-76
2024/03/17 00:23:06;;;;;;;;;;;6.40;99.90;;;;;;5053014;28;19920;-77
2024/03/17 00:25:35;;;;;;;;;;;6.30;99.90;;;;;;5056937;28;19956;-77
2024/03/17 00:28:01;;;;;;;;;;;6.30;99.90;;;;;;5069218;28;20304;-77
2024/03/17 00:30:26;;;;;;;;;;;6.30;99.90;;;;;;5021339;28;19921;-77
2024/03/17 00:32:52;;;;;;;;;;;6.30;99.90;;;;;;5057426;28;19920;-77
2024/03/17 00:35:21;;;;;;;;;;;6.30;99.90;;;;;;5079454;28;20436;-77
2024/03/17 00:37:47;;;;;;;;;;;6.30;99.90;;;;;;5055942;28;19924;-77
2024/03/17 00:40:14;;;;;;;;;;;6.30;99.90;;;;;;5057045;28;20330;-77
2024/03/17 00:42:40;;;;;;;;;;;6.20;99.90;;;;;;5042600;28;19916;-77
2024/03/17 00:45:07;;;;;;;;;;;6.20;99.90;;;;;;5076764;28;19917;-77
2024/03/17 00:47:33;;;;;;;;;;;6.20;99.90;;;;;;5083113;28;19917;-77
2024/03/17 00:49:58;;;;;;;;;;;6.20;99.90;;;;;;5051297;28;20382;-77
2024/03/17 00:52:24;;;;;;;;;;;6.10;99.90;;;;;;5059653;28;19936;-77
2024/03/17 00:54:50;;;;;;;;;;;6.00;99.90;;;;;;5085515;28;20332;-77
2024/03/17 00:57:15;;;;;;;;;;;5.90;99.90;;;;;;5035869;28;20111;-77
2024/03/17 00:59:44;;;;;;;;;;;5.80;99.90;;;;;;5069484;28;19929;-77
2024/03/17 01:02:12;;;;;;;;;;;5.70;99.90;;;;;;5057874;28;20229;-77
2024/03/17 01:04:39;;;;;;;;;;;5.80;99.90;;;;;;5072535;28;20297;-77
2024/03/17 01:07:05;;;;;;;;;;;5.70;99.90;;;;;;5054276;28;19975;-77
2024/03/17 01:09:31;;;;;;;;;;;5.70;99.90;;;;;;5053600;28;19920;-77
2024/03/17 01:11:56;;;;;;;;;;;5.70;99.90;;;;;;5053547;28;19927;-76
2024/03/17 01:14:22;;;;;;;;;;;5.70;99.90;;;;;;5082463;28;20333;-77
2024/03/17 01:16:47;;;;;;;;;;;5.70;99.90;;;;;;5067920;28;19971;-76
2024/03/17 01:19:13;;;;;;;;;;;5.70;99.90;;;;;;5035836;28;19913;-77
2024/03/17 01:21:39;;;;;;;;;;;5.70;99.90;;;;;;5053484;28;19921;-76
2024/03/17 01:24:04;;;;;;;;;;;5.80;99.90;;;;;;5056324;28;19924;-77
2024/03/17 01:26:30;;;;;;;;;;;5.80;99.90;;;;;;5050003;28;19924;-77
2024/03/17 01:28:56;;;;;;;;;;;5.80;99.90;;;;;;5057974;28;19913;-76
2024/03/17 01:31:21;;;;;;;;;;;5.80;99.90;;;;;;5067930;28;20025;-77
2024/03/17 01:33:47;;;;;;;;;;;5.90;99.90;;;;;;5069402;28;19916;-75
2024/03/17 01:36:12;;;;;;;;;;;5.90;99.90;;;;;;5031925;28;19916;-77
2024/03/17 01:38:38;;;;;;;;;;;5.80;99.90;;;;;;5032726;28;20241;-77
2024/03/17 01:41:04;;;;;;;;;;;5.90;99.90;;;;;;5053608;28;19916;-77
2024/03/17 01:43:30;;;;;;;;;;;5.80;99.90;;;;;;5087227;28;19913;-77
2024/03/17 01:45:56;;;;;;;;;;;5.80;99.90;;;;;;5052514;28;20003;-77
2024/03/17 01:48:21;;;;;;;;;;;5.80;99.90;;;;;;5049798;28;19947;-77
2024/03/17 01:50:48;;;;;;;;;;;5.70;99.90;;;;;;5071271;28;19920;-77
2024/03/17 01:53:14;;;;;;;;;;;5.80;99.90;;;;;;5036036;28;19920;-77
2024/03/17 01:55:40;;;;;;;;;;;5.80;99.90;;;;;;5069124;28;20234;-76
2024/03/17 01:58:10;;;;;;;;;;;5.80;99.90;;;;;;5098724;28;20329;-77
2024/03/17 02:00:36;;;;;;;;;;;5.70;99.90;;;;;;5080461;28;19921;-77
2024/03/17 02:03:05;;;;;;;;;;;5.80;99.90;;;;;;5070984;28;20520;-76
2024/03/17 02:05:31;;;;;;;;;;;5.70;99.90;;;;;;5049287;28;19921;-77
2024/03/17 02:07:57;;;;;;;;;;;5.70;99.90;;;;;;5088934;28;19939;-77
2024/03/17 02:10:22;;;;;;;;;;;5.70;99.90;;;;;;5090257;28;19956;-77
2024/03/17 02:12:48;;;;;;;;;;;5.70;99.90;;;;;;5073190;28;19956;-77
2024/03/17 02:15:14;;;;;;;;;;;5.70;99.90;;;;;;5055069;28;19912;-76
2024/03/17 02:17:40;;;;;;;;;;;5.70;99.90;;;;;;5084736;28;20617;-76
2024/03/17 02:20:11;;;;;;;;;;;5.70;99.90;;;;;;5022125;28;19951;-77
2024/03/17 02:22:37;;;;;;;;;;;5.60;99.90;;;;;;5072966;28;19913;-76
2024/03/17 02:25:02;;;;;;;;;;;5.60;99.90;;;;;;5053675;28;19920;-77
2024/03/17 02:27:28;;;;;;;;;;;5.60;99.90;;;;;;5055412;28;19951;-77
2024/03/17 02:29:54;;;;;;;;;;;5.70;99.90;;;;;;5060023;28;20315;-77
2024/03/17 02:32:22;;;;;;;;;;;5.60;99.90;;;;;;5022446;28;20354;-77
2024/03/17 02:34:48;;;;;;;;;;;5.60;99.90;;;;;;5074142;28;20007;-76
2024/03/17 02:37:13;;;;;;;;;;;5.60;99.90;;;;;;5069452;28;20023;-77
2024/03/17 02:39:39;;;;;;;;;;;5.60;99.90;;;;;;5058079;28;20290;-77
2024/03/17 02:42:09;;;;;;;;;;;5.60;99.90;;;;;;5085904;28;19916;-77
2024/03/17 02:44:35;;;;;;;;;;;5.50;99.90;;;;;;5076968;28;19943;-77
2024/03/17 02:47:03;;;;;;;;;;;5.50;99.90;;;;;;5056529;28;19966;-77
2024/03/17 02:49:37;;;;;;;;;;;5.50;99.90;;;;;;5089132;28;19921;-78
2024/03/17 02:52:04;;;;;;;;;;;5.50;99.90;;;;;;5076987;28;19948;-77
2024/03/17 02:54:30;;;;;;;;;;;5.50;99.90;;;;;;5039653;28;19939;-77
2024/03/17 02:56:55;;;;;;;;;;;5.60;99.90;;;;;;5043673;28;20084;-77
2024/03/17 02:59:21;;;;;;;;;;;5.50;99.90;;;;;;5055187;28;19971;-77
2024/03/17 03:01:47;;;;;;;;;;;5.50;99.90;;;;;;5088959;28;19970;-77
2024/03/17 03:04:12;;;;;;;;;;;5.50;99.90;;;;;;5053718;28;19974;-77
2024/03/17 03:06:38;;;;;;;;;;;5.40;99.90;;;;;;5044286;28;19978;-77
2024/03/17 03:09:09;;;;;;;;;;;5.40;99.90;;;;;;5090246;28;20185;-78
2024/03/17 03:11:35;;;;;;;;;;;5.40;99.90;;;;;;5038816;28;20356;-76
2024/03/17 03:14:02;;;;;;;;;;;5.30;99.90;;;;;;5062985;28;19917;-78
2024/03/17 03:16:28;;;;;;;;;;;5.30;99.90;;;;;;5066643;28;20214;-78
2024/03/17 03:18:54;;;;;;;;;;;5.30;99.90;;;;;;5081510;28;19924;-77
2024/03/17 03:21:21;;;;;;;;;;;5.30;99.90;;;;;;5074308;28;19920;-76
2024/03/17 03:23:47;;;;;;;;;;;5.30;99.90;;;;;;5073808;28;20653;-76
2024/03/17 03:26:13;;;;;;;;;;;5.30;99.90;;;;;;5057391;28;19924;-78
2024/03/17 03:28:38;;;;;;;;;;;5.30;99.90;;;;;;5048948;28;20017;-76
2024/03/17 03:31:04;;;;;;;;;;;5.20;99.90;;;;;;5069520;28;19970;-76
2024/03/17 03:33:30;;;;;;;;;;;5.30;99.90;;;;;;5067607;28;20011;-76
2024/03/17 03:35:56;;;;;;;;;;;5.20;99.90;;;;;;5057349;28;19923;-77
2024/03/17 03:38:22;;;;;;;;;;;5.20;99.90;;;;;;5071486;28;19913;-77
2024/03/17 03:40:52;;;;;;;;;;;5.20;99.90;;;;;;5074419;28;19980;-76
2024/03/17 03:43:17;;;;;;;;;;;5.20;99.90;;;;;;5028501;28;19916;-77
2024/03/17 03:45:43;;;;;;;;;;;5.30;99.90;;;;;;5065606;28;19974;-77
2024/03/17 03:48:09;;;;;;;;;;;5.20;99.90;;;;;;5058103;28;19917;-76
2024/03/17 03:50:34;;;;;;;;;;;5.20;99.90;;;;;;5057429;28;19923;-76
2024/03/17 03:53:00;;;;;;;;;;;5.20;99.90;;;;;;5040980;28;19928;-77
2024/03/17 03:55:26;;;;;;;;;;;5.10;99.90;;;;;;5056876;28;19916;-76
2024/03/17 03:57:53;;;;;;;;;;;5.10;99.90;;;;;;5059009;28;19917;-76
2024/03/17 04:00:21;;;;;;;;;;;5.00;99.90;;;;;;5067664;28;20158;-76
2024/03/17 04:02:47;;;;;;;;;;;5.00;99.90;;;;;;5069810;28;20241;-76
2024/03/17 04:05:13;;;;;;;;;;;4.90;99.90;;;;;;5040683;28;20018;-77
2024/03/17 04:07:39;;;;;;;;;;;4.90;99.90;;;;;;5073280;28;19970;-77
2024/03/17 04:10:06;;;;;;;;;;;4.80;99.90;;;;;;5056754;28;19928;-76
2024/03/17 04:12:32;;;;;;;;;;;4.70;99.90;;;;;;5057198;28;19924;-76
2024/03/17 04:14:58;;;;;;;;;;;4.80;99.90;;;;;;5040388;28;20318;-77
2024/03/17 04:17:24;;;;;;;;;;;4.70;99.90;;;;;;5049671;28;19912;-76
2024/03/17 04:19:50;;;;;;;;;;;4.70;99.90;;;;;;5059961;28;20004;-77
2024/03/17 04:22:19;;;;;;;;;;;4.70;99.90;;;;;;5060047;28;19921;-77
2024/03/17 04:24:44;;;;;;;;;;;4.70;99.90;;;;;;5059314;28;19978;-76
2024/03/17 04:27:10;;;;;;;;;;;4.60;99.90;;;;;;5067456;28;20237;-77
2024/03/17 04:29:36;;;;;;;;;;;4.60;99.90;;;;;;5072926;28;19943;-77
2024/03/17 04:32:02;;;;;;;;;;;4.60;99.90;;;;;;5056137;28;20322;-78
2024/03/17 04:34:31;;;;;;;;;;;4.60;99.90;;;;;;5056756;28;19920;-77
2024/03/17 04:36:57;;;;;;;;;;;4.60;99.90;;;;;;5057880;28;19913;-77
2024/03/17 04:39:23;;;;;;;;;;;4.60;99.90;;;;;;5056769;28;19920;-76
2024/03/17 04:41:49;;;;;;;;;;;4.60;99.90;;;;;;5066931;28;20058;-78
2024/03/17 04:44:15;;;;;;;;;;;4.60;99.90;;;;;;5066165;28;19927;-77
2024/03/17 04:46:41;;;;;;;;;;;4.60;99.90;;;;;;5073526;28;19920;-76
2024/03/17 04:49:08;;;;;;;;;;;4.60;99.90;;;;;;5071136;28;20325;-76
2024/03/17 04:51:33;;;;;;;;;;;4.60;99.90;;;;;;5021269;28;19917;-78
2024/03/17 04:53:59;;;;;;;;;;;4.60;99.90;;;;;;5038305;28;20359;-77
2024/03/17 04:56:25;;;;;;;;;;;4.50;99.90;;;;;;5037698;28;19917;-77
2024/03/17 04:58:50;;;;;;;;;;;4.50;99.90;;;;;;5033828;28;19960;-77
2024/03/17 05:01:16;;;;;;;;;;;4.50;99.90;;;;;;5078229;28;19925;-76
2024/03/17 05:03:42;;;;;;;;;;;4.50;99.90;;;;;;5072204;28;20313;-76
2024/03/17 05:06:08;;;;;;;;;;;4.50;99.90;;;;;;5042914;28;20003;-77
2024/03/17 05:08:37;;;;;;;;;;;4.50;99.90;;;;;;5060965;28;19924;-77
2024/03/17 05:11:07;;;;;;;;;;;4.50;99.90;;;;;;5024878;28;20222;-78
2024/03/17 05:13:33;;;;;;;;;;;4.50;99.90;;;;;;5061767;28;19916;-77
2024/03/17 05:15:59;;;;;;;;;;;4.50;99.90;;;;;;5078683;28;20622;-77
2024/03/17 05:18:26;;;;;;;;;;;4.60;99.90;;;;;;5081183;28;20027;-76
2024/03/17 05:21:01;;;;;;;;;;;4.50;99.90;;;;;;5071839;28;19967;-77
2024/03/17 05:23:28;;;;;;;;;;;4.60;99.90;;;;;;5058787;28;19916;-77
2024/03/17 05:25:54;;;;;;;;;;;4.50;99.90;;;;;;5038515;28;19920;-77
2024/03/17 05:28:19;;;;;;;;;;;4.50;99.90;;;;;;5054389;28;19916;-77
2024/03/17 05:30:45;;;;;;;;;;;4.60;99.90;;;;;;5052019;28;19928;-77
2024/03/17 05:33:10;;;;;;;;;;;4.60;99.90;;;;;;5047192;28;19927;-76
2024/03/17 05:35:36;;;;;;;;;;;4.60;99.90;;;;;;5062022;28;20008;-76
2024/03/17 05:38:02;;;;;;;;;;;4.60;99.90;;;;;;5023691;28;19953;-77
2024/03/17 05:40:27;;;;;;;;;;;4.60;99.90;;;;;;5067279;28;19921;-77
2024/03/17 05:42:53;;;;;;;;;;;4.60;99.90;;;;;;5072561;28;19920;-78
2024/03/17 05:45:19;;;;;;;;;;;4.60;99.90;;;;;;5073800;28;19921;-76
2024/03/17 05:47:44;;;;;;;;;;;4.60;99.90;;;;;;5066159;28;19923;-77
2024/03/17 05:50:12;;;;;;;;;;;4.70;99.90;;;;;;5076035;28;20307;-77
2024/03/17 05:52:38;;;;;;;;;;;4.70;99.90;;;;;;5075913;28;19943;-77
2024/03/17 05:55:03;;;;;;;;;;;4.70;99.90;;;;;;5077884;28;19920;-76
2024/03/17 05:57:29;;;;;;;;;;;4.70;99.90;;;;;;5070480;28;19925;-77
2024/03/17 05:59:55;;;;;;;;;;;4.70;99.90;;;;;;5042150;28;19980;-77
2024/03/17 06:02:21;;;;;;;;;;;4.80;99.90;;;;;;5097159;28;20328;-77
2024/03/17 06:04:47;;;;;;;;;;;4.80;99.90;;;;;;5056068;28;19924;-76
2024/03/17 06:07:14;;;;;;;;;;;4.80;99.90;;;;;;5056260;28;20253;-77
2024/03/17 06:09:39;;;;;;;;;;;4.80;99.90;;;;;;5056343;28;19924;-76
2024/03/17 06:12:05;;;;;;;;;;;4.80;99.90;;;;;;5081485;28;20223;-77
2024/03/17 06:14:31;;;;;;;;;;;4.80;99.90;;;;;;5073737;28;19963;-77
2024/03/17 06:16:57;;;;;;;;;;;4.90;99.90;;;;;;5075432;28;19913;-76
2024/03/17 06:19:23;;;;;;;;;;;4.90;99.90;;;;;;5072389;28;19930;-76
2024/03/17 06:21:48;;;;;;;;;;;4.90;99.90;;;;;;5070111;28;20368;-76
2024/03/17 06:24:14;;;;;;;;;;;4.90;99.90;;;;;;5075834;28;20003;-76
2024/03/17 06:26:40;;;;;;;;;;;5.00;99.90;;;;;;5039771;28;19913;-75
2024/03/17 06:29:05;;;;;;;;;;;5.00;99.90;;;;;;5056852;28;20397;-76
2024/03/17 06:31:31;;;;;;;;;;;5.10;99.90;;;;;;5073306;28;19913;-76
2024/03/17 06:33:58;;;;;;;;;;;5.10;99.90;;;;;;5056737;28;19924;-76
2024/03/17 06:36:23;;;;;;;;;;;5.20;99.90;;;;;;5058659;28;19955;-77
2024/03/17 06:38:49;;;;;;;;;;;5.20;99.90;;;;;;5072562;28;20321;-77
2024/03/17 06:41:15;;;;;;;;;;;5.20;99.90;;;;;;5055453;28;19917;-77
2024/03/17 06:43:43;;;;;;;;;;;5.20;99.90;;;;;;5067763;28;19947;-76
2024/03/17 06:46:08;;;;;;;;;;;5.20;99.90;;;;;;5058069;28;20109;-76
2024/03/17 06:48:34;;;;;;;;;;;5.30;99.90;;;;;;5088774;28;20624;-76
2024/03/17 06:51:00;;;;;;;;;;;5.30;99.90;;;;;;5090712;28;19912;-77
2024/03/17 06:53:26;;;;;;;;;;;5.30;99.90;;;;;;5070793;28;20287;-76
2024/03/17 06:55:53;;;;;;;;;;;5.40;99.90;;;;;;5047797;28;19913;-77
2024/03/17 06:58:22;;;;;;;;;;;5.40;99.90;;;;;;5052900;28;19917;-77
2024/03/17 07:00:54;;;;;;;;;;;5.40;99.90;;;;;;5060776;28;20345;-77
2024/03/17 07:03:22;;;;;;;;;;;5.40;99.90;;;;;;5057000;28;20359;-76
2024/03/17 07:05:52;;;;;;;;;;;5.50;99.90;;;;;;5055942;28;20391;-77
2024/03/17 07:08:19;;;;;;;;;;;5.40;99.90;;;;;;5055678;28;19916;-76
2024/03/17 07:10:54;;;;;;;;;;;5.50;99.90;;;;;;5062613;28;19917;-76
2024/03/17 07:13:20;;;;;;;;;;;5.50;99.90;;;;;;5072583;28;19917;-76
2024/03/17 07:15:49;;;;;;;;;;;5.60;99.90;;;;;;5091541;28;20296;-76
2024/03/17 07:18:15;;;;;;;;;;;5.60;99.90;;;;;;5086299;28;19956;-76
2024/03/17 07:20:40;;;;;;;;;;;5.70;99.90;;;;;;5054295;28;19956;-76
2024/03/17 07:23:06;;;;;;;;;;;5.70;99.90;;;;;;5055097;28;19998;-76
2024/03/17 07:25:32;;;;;;;;;;;5.80;99.90;;;;;;5072539;28;19912;-76
2024/03/17 07:27:58;;;;;;;;;;;5.80;99.90;;;;;;5056986;28;20288;-76
2024/03/17 07:30:23;;;;;;;;;;;5.80;99.90;;;;;;5072114;28;20337;-76
2024/03/17 07:32:49;;;;;;;;;;;5.90;99.90;;;;;;5055583;28;19921;-76
2024/03/17 07:35:14;;;;;;;;;;;6.00;99.90;;;;;;5071230;28;19913;-76
2024/03/17 07:37:40;;;;;;;;;;;6.10;99.90;;;;;;5057111;28;19938;-76
2024/03/17 07:40:10;;;;;;;;;;;6.10;99.90;;;;;;5054389;28;19924;-76
2024/03/17 07:42:36;;;;;;;;;;;6.20;99.90;;;;;;5086200;28;19920;-76
2024/03/17 07:45:02;;;;;;;;;;;6.20;99.90;;;;;;5071029;28;19913;-77
2024/03/17 07:47:35;;;;;;;;;;;6.20;99.90;;;;;;5077104;28;20323;-77
2024/03/17 07:50:05;;;;;;;;;;;6.30;99.90;;;;;;5075700;28;19928;-77
2024/03/17 07:52:34;;;;;;;;;;;6.30;99.90;;;;;;5078418;28;20312;-77
2024/03/17 07:54:59;;;;;;;;;;;6.30;99.90;;;;;;5053503;28;19932;-77
2024/03/17 07:57:25;;;;;;;;;;;6.40;99.90;;;;;;5067210;28;19916;-77
2024/03/17 07:59:53;;;;;;;;;;;6.40;99.90;;;;;;5055536;28;19932;-78
2024/03/17 08:02:19;;;;;;;;;;;6.50;99.90;;;;;;5063301;28;19921;-77
2024/03/17 08:04:48;;;;;;;;;;;6.50;99.90;;;;;;5073752;28;19924;-76
2024/03/17 08:07:13;;;;;;;;;;;6.60;99.90;;;;;;5074588;28;19928;-77
2024/03/17 08:09:39;;;;;;;;;;;6.50;99.90;;;;;;5073418;28;19925;-78
2024/03/17 08:12:05;;;;;;;;;;;6.60;99.90;;;;;;5068436;28;19916;-77
2024/03/17 08:14:31;;;;;;;;;;;6.60;99.90;;;;;;5040376;28;19912;-77
2024/03/17 08:16:56;;;;;;;;;;;6.70;99.90;;;;;;5056627;28;19912;-78
2024/03/17 08:19:22;;;;;;;;;;;6.70;99.90;;;;;;5065016;28;20320;-77
2024/03/17 08:21:47;;;;;;;;;;;6.80;99.90;;;;;;5019960;28;19928;-77
2024/03/17 08:24:13;;;;;;;;;;;6.90;99.90;;;;;;5024200;28;19978;-77
2024/03/17 08:26:40;;;;;;;;;;;6.90;99.90;;;;;;5060096;28;19920;-76
2024/03/17 08:29:06;;;;;;;;;;;6.90;99.90;;;;;;5082919;28;20348;-77
2024/03/17 08:31:34;;;;;;;;;;;7.00;99.90;;;;;;5051524;28;19939;-77
2024/03/17 08:34:01;;;;;;;;;;;7.10;99.90;;;;;;5037561;28;19916;-77
2024/03/17 08:36:28;;;;;;;;;;;7.10;99.90;;;;;;5057017;28;19913;-77
2024/03/17 08:38:54;;;;;;;;;;;7.20;99.90;;;;;;5068318;28;19917;-77
2024/03/17 08:41:20;;;;;;;;;;;7.30;99.90;;;;;;5078542;28;19921;-77
2024/03/17 08:43:46;;;;;;;;;;;7.30;99.90;;;;;;5073478;28;19923;-77
2024/03/17 08:46:13;;;;;;;;;;;7.40;99.90;;;;;;5056211;28;19913;-77
2024/03/17 08:48:39;;;;;;;;;;;7.40;99.90;;;;;;5066951;28;19960;-76
2024/03/17 08:51:05;;;;;;;;;;;7.50;99.90;;;;;;5075147;28;19956;-77
2024/03/17 08:53:31;;;;;;;;;;;7.50;99.90;;;;;;5094296;28;19916;-77
2024/03/17 08:55:58;;;;;;;;;;;7.50;99.90;;;;;;5106820;28;19912;-77
2024/03/17 08:58:24;;;;;;;;;;;7.60;99.90;;;;;;5094343;28;19923;-77
2024/03/17 09:00:50;;;;;;;;;;;7.70;99.90;;;;;;5073041;28;20532;-77
2024/03/17 09:03:16;;;;;;;;;;;7.60;99.90;;;;;;5059877;28;19920;-77
2024/03/17 09:05:43;;;;;;;;;;;7.70;99.90;;;;;;5035381;28;20450;-75
2024/03/17 09:08:21;;;;;;;;;;;7.70;99.90;;;;;;5069325;28;19946;-74
2024/03/17 09:10:48;;;;;;;;;;;7.90;99.90;;;;;;5066646;28;19920;-74
2024/03/17 09:13:17;;;;;;;;;;;8.00;99.90;;;;;;5060241;28;19913;-76
2024/03/17 09:16:11;;;;;;;;;;;8.10;99.90;;;;;;5045557;28;19920;-75
2024/03/17 09:18:37;;;;;;;;;;;8.30;99.90;;;;;;5049955;28;20329;-74
2024/03/17 09:21:03;;;;;;;;;;;8.30;99.90;;;;;;5064077;28;19920;-74
2024/03/17 09:23:29;;;;;;;;;;;8.40;99.90;;;;;;5056913;28;20651;-74
2024/03/17 09:25:58;;;;;;;;;;;8.50;99.90;;;;;;5075180;28;20372;-75
2024/03/17 09:28:24;;;;;;;;;;;8.60;99.90;;;;;;5037415;28;20375;-75
2024/03/17 09:30:49;;;;;;;;;;;8.70;99.90;;;;;;5036552;28;19917;-77
2024/03/17 09:33:15;;;;;;;;;;;8.80;99.90;;;;;;5068071;28;19913;-76
2024/03/17 09:35:40;;;;;;;;;;;9.00;99.90;;;;;;5053835;28;20552;-76
2024/03/17 09:38:06;;;;;;;;;;;9.00;99.90;;;;;;5052553;28;19920;-76
2024/03/17 09:40:32;;;;;;;;;;;9.10;99.90;;;;;;5078834;28;20506;-75
2024/03/17 09:42:59;;;;;;;;;;;9.20;99.90;;;;;;5075646;28;20344;-76
2024/03/17 09:45:25;;;;;;;;;;;9.30;99.90;;;;;;5021061;28;19917;-75
2024/03/17 09:47:51;;;;;;;;;;;9.30;99.90;;;;;;5053340;28;19924;-75
2024/03/17 09:50:18;;;;;;;;;;;9.30;99.90;;;;;;5066989;28;19912;-76
2024/03/17 09:52:44;;;;;;;;;;;9.20;99.90;;;;;;5073884;28;19916;-75
2024/03/17 09:55:13;;;;;;;;;;;9.20;99.90;;;;;;5089684;28;19952;-77
2024/03/17 09:57:39;;;;;;;;;;;8.90;99.90;;;;;;5035072;28;20346;-76
2024/03/17 10:00:14;;;;;;;;;;;9.00;99.90;;;;;;5066643;28;19925;-76
2024/03/17 10:02:44;;;;;;;;;;;9.20;99.90;;;;;;5075865;28;19924;-76
2024/03/17 10:05:23;;;;;;;;;;;9.30;99.90;;;;;;5071522;28;19927;-74
2024/03/17 10:07:51;;;;;;;;;;;9.50;99.90;;;;;;5066743;28;19996;-76
2024/03/17 10:10:17;;;;;;;;;;;9.70;99.90;;;;;;5069620;28;19920;-75
2024/03/17 10:12:43;;;;;;;;;;;9.90;99.90;;;;;;5027171;28;19932;-75
2024/03/17 10:15:12;;;;;;;;;;;10.00;99.90;;;;;;5033743;28;19917;-76
2024/03/17 10:17:38;;;;;;;;;;;10.20;99.90;;;;;;5066348;28;19940;-77
2024/03/17 10:20:16;;;;;;;;;;;10.30;99.90;;;;;;5074322;28;19925;-76
2024/03/17 10:23:01;;;;;;;;;;;10.40;99.90;;;;;;5065928;28;19927;-77
2024/03/17 10:25:28;;;;;;;;;;;10.30;99.90;;;;;;5062328;28;20003;-76
2024/03/17 10:27:54;;;;;;;;;;;9.90;99.90;;;;;;5063331;28;19916;-76
2024/03/17 10:30:21;;;;;;;;;;;9.90;99.90;;;;;;5039940;28;19927;-75
2024/03/17 10:32:57;;;;;;;;;;;9.90;99.90;;;;;;5036571;28;19917;-76
2024/03/17 10:35:33;;;;;;;;;;;9.90;99.90;;;;;;5073802;28;19917;-75
2024/03/17 10:38:04;;;;;;;;;;;9.90;99.90;;;;;;5069753;28;19956;-76
2024/03/17 10:40:30;;;;;;;;;;;10.10;99.90;;;;;;5071872;28;19925;-76
2024/03/17 10:42:56;;;;;;;;;;;10.00;99.90;;;;;;5100214;28;20317;-76
2024/03/17 10:45:22;;;;;;;;;;;10.00;99.90;;;;;;5087544;28;19916;-76
2024/03/17 10:47:49;;;;;;;;;;;9.90;99.90;;;;;;5055330;28;19927;-76
2024/03/17 10:50:16;;;;;;;;;;;9.90;99.90;;;;;;5039076;28;19990;-76
2024/03/17 10:52:46;;;;;;;;;;;9.90;99.90;;;;;;5085971;28;19996;-75
2024/03/17 10:55:13;;;;;;;;;;;9.90;99.90;;;;;;5087849;28;19917;-76
2024/03/17 10:57:42;;;;;;;;;;;9.80;99.90;;;;;;5072983;28;19955;-76
2024/03/17 11:00:08;;;;;;;;;;;9.80;99.90;;;;;;5072285;28;20576;-76
2024/03/17 11:02:35;;;;;;;;;;;9.80;99.90;;;;;;5055773;28;19913;-76
2024/03/17 11:05:20;;;;;;;;;;;9.80;99.90;;;;;;5055967;28;19923;-76
2024/03/17 11:07:46;;;;;;;;;;;9.90;99.90;;;;;;5055984;28;19917;-76
2024/03/17 11:10:16;;;;;;;;;;;10.00;99.90;;;;;;5056844;28;20395;-76
2024/03/17 11:12:43;;;;;;;;;;;10.30;99.90;;;;;;5068602;28;19916;-76
2024/03/17 11:15:20;;;;;;;;;;;10.50;99.90;;;;;;5051584;28;19913;-76
2024/03/17 11:17:46;;;;;;;;;;;10.70;99.90;;;;;;5078139;28;19923;-76
2024/03/17 11:20:16;;;;;;;;;;;10.80;99.90;;;;;;5053654;28;19917;-76
2024/03/17 11:22:42;;;;;;;;;;;10.80;99.90;;;;;;5044822;28;19913;-76
2024/03/17 11:25:26;;;;;;;;;;;10.80;99.90;;;;;;5070499;28;19924;-75
2024/03/17 11:27:52;;;;;;;;;;;10.80;99.90;;;;;;5067287;28;19913;-76
2024/03/17 11:30:43;;;;;;;;;;;10.70;99.90;;;;;;5085839;28;20011;-76
2024/03/17 11:33:28;;;;;;;;;;;10.60;99.90;;;;;;5066924;28;20648;-76
2024/03/17 11:36:12;;;;;;;;;;;10.50;99.90;;;;;;5052458;28;19916;-76
2024/03/17 11:38:57;;;;;;;;;;;10.40;99.90;;;;;;5039860;28;20222;-76
2024/03/17 11:41:34;;;;;;;;;;;10.40;99.90;;;;;;5054698;28;20693;-76
2024/03/17 11:44:20;;;;;;;;;;;10.40;99.90;;;;;;5067781;28;19924;-76
2024/03/17 11:46:58;;;;;;;;;;;10.40;99.90;;;;;;5060904;28;19959;-76
2024/03/17 11:49:23;;;;;;;;;;;10.60;99.90;;;;;;5036182;28;19978;-76
2024/03/17 11:51:53;;;;;;;;;;;10.70;99.90;;;;;;5053744;28;20011;-75
2024/03/17 11:54:19;;;;;;;;;;;10.80;99.90;;;;;;5054890;28;20015;-75
2024/03/17 11:56:45;;;;;;;;;;;10.90;99.90;;;;;;5056988;28;19913;-76
2024/03/17 11:59:12;;;;;;;;;;;10.90;99.90;;;;;;5084851;28;19969;-76
2024/03/17 12:01:37;;;;;;;;;;;11.00;99.90;;;;;;5056167;28;20020;-75
2024/03/17 12:04:07;;;;;;;;;;;10.90;99.90;;;;;;5050485;28;20063;-75
2024/03/17 12:06:33;;;;;;;;;;;10.80;99.90;;;;;;5059150;28;19917;-75
2024/03/17 12:09:11;;;;;;;;;;;11.00;99.90;;;;;;5087739;28;20257;-75
2024/03/17 12:11:37;;;;;;;;;;;11.20;99.90;;;;;;5070780;28;19917;-76
2024/03/17 12:14:11;;;;;;;;;;;11.60;99.90;;;;;;5069931;28;20557;-76
2024/03/17 12:16:37;;;;;;;;;;;11.90;99.90;;;;;;5069484;28;19927;-76
2024/03/17 12:19:07;;;;;;;;;;;12.20;99.90;;;;;;5052360;28;19917;-76
2024/03/17 12:21:35;;;;;;;;;;;12.50;99.90;;;;;;5036391;28;20011;-76
2024/03/17 12:24:00;;;;;;;;;;;12.80;99.90;;;;;;5041727;28;20241;-75
2024/03/17 12:26:26;;;;;;;;;;;13.10;99.90;;;;;;5087802;28;19916;-76
2024/03/17 12:28:52;;;;;;;;;;;13.30;99.10;;;;;;5053162;28;19928;-75
2024/03/17 12:31:17;;;;;;;;;;;13.40;98.50;;;;;;5037335;28;20004;-75
2024/03/17 12:33:44;;;;;;;;;;;13.40;97.40;;;;;;5043166;28;19955;-75
2024/03/17 12:36:13;;;;;;;;;;;13.20;97.70;;;;;;5073886;28;19912;-75
2024/03/17 12:38:38;;;;;;;;;;;12.90;98.30;;;;;;5052531;28;20017;-74
2024/03/17 12:41:07;;;;;;;;;;;13.30;98.60;;;;;;5065160;28;19983;-75
2024/03/17 12:43:32;;;;;;;;;;;13.70;99.40;;;;;;5070497;28;19917;-74
2024/03/17 12:45:58;;;;;;;;;;;14.10;97.20;;;;;;5039222;28;19913;-74
2024/03/17 12:48:24;;;;;;;;;;;14.50;98.00;;;;;;5052845;28;19978;-75
2024/03/17 12:50:51;;;;;;;;;;;14.90;97.20;;;;;;5053622;28;19924;-74
2024/03/17 12:53:17;;;;;;;;;;;15.40;97.90;;;;;;5049834;28;19913;-76
2024/03/17 13:01:12;;;;;;;;;;;15.80;96.70;;;;;;5053389;28;19931;-75
2024/03/17 13:03:40;;;;;;;;;;;16.20;97.30;;;;;;5053698;28;19923;-74
2024/03/17 13:06:09;;;;;;;;;;;16.40;95.60;;;;;;5036426;28;19913;-76
2024/03/17 13:08:35;;;;;;;;;;;16.40;95.50;;;;;;5070104;28;19917;-75
2024/03/17 13:11:01;;;;;;;;;;;16.60;95.20;;;;;;5057804;28;19925;-79
2024/03/17 13:13:27;;;;;;;;;;;16.90;94.80;;;;;;5066169;28;19940;-77
2024/03/17 13:15:53;;;;;;;;;;;17.10;94.50;;;;;;5055172;28;19921;-77
2024/03/17 13:18:19;;;;;;;;;;;17.10;93.30;;;;;;5049472;28;19952;-76
2024/03/17 13:20:46;;;;;;;;;;;17.00;91.50;;;;;;5061434;28;20729;-74
2024/03/17 13:23:12;;;;;;;;;;;16.80;91.50;;;;;;5038825;28;19917;-76
2024/03/17 13:25:39;;;;;;;;;;;16.70;91.40;;;;;;5084681;28;19924;-74
2024/03/17 13:28:06;;;;;;;;;;;16.80;91.50;;;;;;5052753;28;19925;-76
2024/03/17 13:30:33;;;;;;;;;;;16.80;91.60;;;;;;5066395;28;20045;-76
2024/03/17 13:32:59;;;;;;;;;;;17.10;91.30;;;;;;5058056;28;19916;-75
2024/03/17 13:35:26;;;;;;;;;;;17.10;89.50;;;;;;5036601;28;20289;-77
2024/03/17 13:37:51;;;;;;;;;;;17.10;90.90;;;;;;5020403;28;19917;-75
2024/03/17 13:40:18;;;;;;;;;;;17.20;90.10;;;;;;5073471;28;20241;-76
2024/03/17 13:42:51;;;;;;;;;;;17.10;91.00;;;;;;5089063;28;19919;-75
2024/03/17 13:45:17;;;;;;;;;;;17.20;90.10;;;;;;5035053;28;19952;-76
2024/03/17 13:47:45;;;;;;;;;;;17.30;90.50;;;;;;5060806;28;20349;-76
2024/03/17 13:50:12;;;;;;;;;;;17.40;89.50;;;;;;5093039;28;20333;-76
2024/03/17 13:52:38;;;;;;;;;;;17.30;90.30;;;;;;5042047;28;19917;-77
2024/03/17 13:55:08;;;;;;;;;;;17.20;90.20;;;;;;5036000;28;20000;-75
2024/03/17 13:57:35;;;;;;;;;;;17.30;89.60;;;;;;5036633;28;19913;-75
2024/03/17 14:00:02;;;;;;;;;;;17.30;88.60;;;;;;5067098;28;19924;-77
2024/03/17 14:02:28;;;;;;;;;;;17.40;90.50;;;;;;5072219;28;19917;-78
2024/03/17 14:04:53;;;;;;;;;;;17.60;90.00;;;;;;5073546;28;20237;-75
2024/03/17 14:07:19;;;;;;;;;;;17.80;90.20;;;;;;5040423;28;19917;-77
2024/03/17 14:09:46;;;;;;;;;;;18.00;88.70;;;;;;5057514;28;19913;-78
2024/03/17 14:12:12;;;;;;;;;;;17.90;86.70;;;;;;5057819;28;19991;-76
2024/03/17 14:14:38;;;;;;;;;;;18.00;87.70;;;;;;5031928;28;19960;-76
2024/03/17 14:17:03;;;;;;;;;;;18.00;85.70;;;;;;5067484;28;19913;-77
2024/03/17 14:19:29;;;;;;;;;;;18.10;87.90;;;;;;5055847;28;19921;-77
2024/03/17 14:21:55;;;;;;;;;;;18.10;86.50;;;;;;5073978;28;19960;-78
2024/03/17 14:24:21;;;;;;;;;;;18.20;84.50;;;;;;5073179;28;19923;-78
2024/03/17 14:26:46;;;;;;;;;;;18.20;83.50;;;;;;5055461;28;19947;-77
2024/03/17 14:29:12;;;;;;;;;;;18.20;84.40;;;;;;5054631;28;19917;-77
2024/03/17 14:31:39;;;;;;;;;;;18.50;83.60;;;;;;5090294;28;20630;-77